sensor_id;sensor_type;location;lat;lon;timestamp;P1;durP1;ratioP1;P2;durP2;ratioP2
52692;SDS011;68218;51.012;-1.648;2023-04-24T00:00:20;22.30;;;19.90;;
52692;SDS011;68218;51.012;-1.648;2023-04-24T00:02:45;28.17;;;23.70;;
52692;SDS011;68218;51.012;-1.648;2023-04-24T00:05:12;27.00;;;20.85;;
52692;SDS011;68218;51.012;-1.648;2023-04-24T00:07:39;24.40;;;20.48;;
52692;SDS011;68218;51.012;-1.648;2023-04-24T00:10:05;24.05;;;20.67;;
52692;SDS011;68218;51.012;-1.648;2023-04-24T00:12:31;26.33;;;21.05;;
52692;SDS011;68218;51.012;-1.648;2023-04-24T00:17:22;22.20;;;19.90;;
52692;SDS011;68218;51.012;-1.648;2023-04-24T00:22:13;24.02;;;20.48;;
52692;SDS011;68218;51.012;-1.648;2023-04-24T00:27:04;23.45;;;20.92;;
52692;SDS011;68218;51.012;-1.648;2023-04-24T00:29:30;23.75;;;20.73;;
52692;SDS011;68218;51.012;-1.648;2023-04-24T00:31:55;23.95;;;20.85;;
52692;SDS011;68218;51.012;-1.648;2023-04-24T00:34:21;23.70;;;21.08;;
52692;SDS011;68218;51.012;-1.648;2023-04-24T00:39:14;28.92;;;22.15;;
52692;SDS011;68218;51.012;-1.648;2023-04-24T00:41:39;23.52;;;20.98;;
52692;SDS011;68218;51.012;-1.648;2023-04-24T00:46:30;21.88;;;19.58;;
52692;SDS011;68218;51.012;-1.648;2023-04-24T00:48:56;23.45;;;19.88;;
52692;SDS011;68218;51.012;-1.648;2023-04-24T00:51:23;23.17;;;20.42;;
52692;SDS011;68218;51.012;-1.648;2023-04-24T00:53:49;22.73;;;19.77;;
52692;SDS011;68218;51.012;-1.648;2023-04-24T00:56:15;21.25;;;19.08;;
52692;SDS011;68218;51.012;-1.648;2023-04-24T00:58:42;21.58;;;18.83;;
52692;SDS011;68218;51.012;-1.648;2023-04-24T01:01:08;24.73;;;22.23;;
52692;SDS011;68218;51.012;-1.648;2023-04-24T01:03:34;22.92;;;20.52;;
52692;SDS011;68218;51.012;-1.648;2023-04-24T01:06:02;22.88;;;20.42;;
52692;SDS011;68218;51.012;-1.648;2023-04-24T01:08:29;22.27;;;19.88;;
52692;SDS011;68218;51.012;-1.648;2023-04-24T01:10:54;23.33;;;20.60;;
52692;SDS011;68218;51.012;-1.648;2023-04-24T01:13:22;25.10;;;20.83;;
52692;SDS011;68218;51.012;-1.648;2023-04-24T01:15:47;24.40;;;21.85;;
52692;SDS011;68218;51.012;-1.648;2023-04-24T01:20:42;24.13;;;21.55;;
52692;SDS011;68218;51.012;-1.648;2023-04-24T01:23:10;23.65;;;19.80;;
52692;SDS011;68218;51.012;-1.648;2023-04-24T01:25:36;21.85;;;19.50;;
52692;SDS011;68218;51.012;-1.648;2023-04-24T01:28:02;23.58;;;19.55;;
52692;SDS011;68218;51.012;-1.648;2023-04-24T01:30:29;22.67;;;20.20;;
52692;SDS011;68218;51.012;-1.648;2023-04-24T01:32:55;21.65;;;19.33;;
52692;SDS011;68218;51.012;-1.648;2023-04-24T01:35:21;22.15;;;19.25;;
52692;SDS011;68218;51.012;-1.648;2023-04-24T01:40:12;23.17;;;18.50;;
52692;SDS011;68218;51.012;-1.648;2023-04-24T01:42:38;21.63;;;18.77;;
52692;SDS011;68218;51.012;-1.648;2023-04-24T01:45:03;20.45;;;18.27;;
52692;SDS011;68218;51.012;-1.648;2023-04-24T01:47:33;22.20;;;19.70;;
52692;SDS011;68218;51.012;-1.648;2023-04-24T01:49:58;23.33;;;20.35;;
52692;SDS011;68218;51.012;-1.648;2023-04-24T01:54:49;23.60;;;20.15;;
52692;SDS011;68218;51.012;-1.648;2023-04-24T01:57:15;22.13;;;19.77;;
52692;SDS011;68218;51.012;-1.648;2023-04-24T01:59:41;26.65;;;20.27;;
52692;SDS011;68218;51.012;-1.648;2023-04-24T02:02:06;25.52;;;22.73;;
52692;SDS011;68218;51.012;-1.648;2023-04-24T02:04:32;23.90;;;20.33;;
52692;SDS011;68218;51.012;-1.648;2023-04-24T02:06:58;24.15;;;21.55;;
52692;SDS011;68218;51.012;-1.648;2023-04-24T02:09:23;29.48;;;20.20;;
52692;SDS011;68218;51.012;-1.648;2023-04-24T02:11:49;25.65;;;20.77;;
52692;SDS011;68218;51.012;-1.648;2023-04-24T02:14:14;24.15;;;20.67;;
52692;SDS011;68218;51.012;-1.648;2023-04-24T02:16:40;22.17;;;19.77;;
52692;SDS011;68218;51.012;-1.648;2023-04-24T02:21:30;23.88;;;20.50;;
52692;SDS011;68218;51.012;-1.648;2023-04-24T02:23:56;22.13;;;19.30;;
52692;SDS011;68218;51.012;-1.648;2023-04-24T02:28:47;21.85;;;18.98;;
52692;SDS011;68218;51.012;-1.648;2023-04-24T02:33:39;21.08;;;18.67;;
52692;SDS011;68218;51.012;-1.648;2023-04-24T02:36:04;23.10;;;20.17;;
52692;SDS011;68218;51.012;-1.648;2023-04-24T02:38:30;27.30;;;20.92;;
52692;SDS011;68218;51.012;-1.648;2023-04-24T02:40:55;23.33;;;20.15;;
52692;SDS011;68218;51.012;-1.648;2023-04-24T02:43:21;25.08;;;20.05;;
52692;SDS011;68218;51.012;-1.648;2023-04-24T02:45:46;26.77;;;20.48;;
52692;SDS011;68218;51.012;-1.648;2023-04-24T02:48:11;25.40;;;20.15;;
52692;SDS011;68218;51.012;-1.648;2023-04-24T02:50:37;26.27;;;20.23;;
52692;SDS011;68218;51.012;-1.648;2023-04-24T02:53:02;23.30;;;19.88;;
52692;SDS011;68218;51.012;-1.648;2023-04-24T02:55:28;23.60;;;20.40;;
52692;SDS011;68218;51.012;-1.648;2023-04-24T02:57:54;23.45;;;19.38;;
52692;SDS011;68218;51.012;-1.648;2023-04-24T03:00:19;22.80;;;19.58;;
52692;SDS011;68218;51.012;-1.648;2023-04-24T03:02:45;21.35;;;18.67;;
52692;SDS011;68218;51.012;-1.648;2023-04-24T03:05:10;22.98;;;20.33;;
52692;SDS011;68218;51.012;-1.648;2023-04-24T03:07:37;22.15;;;19.15;;
52692;SDS011;68218;51.012;-1.648;2023-04-24T03:10:03;21.05;;;17.98;;
52692;SDS011;68218;51.012;-1.648;2023-04-24T03:12:30;23.15;;;20.10;;
52692;SDS011;68218;51.012;-1.648;2023-04-24T03:14:56;23.02;;;18.85;;
52692;SDS011;68218;51.012;-1.648;2023-04-24T03:17:21;22.98;;;18.20;;
52692;SDS011;68218;51.012;-1.648;2023-04-24T03:19:47;21.30;;;18.42;;
52692;SDS011;68218;51.012;-1.648;2023-04-24T03:22:12;22.77;;;18.05;;
52692;SDS011;68218;51.012;-1.648;2023-04-24T03:24:38;21.52;;;18.70;;
52692;SDS011;68218;51.012;-1.648;2023-04-24T03:27:03;23.23;;;18.73;;
52692;SDS011;68218;51.012;-1.648;2023-04-24T03:31:54;22.03;;;19.73;;
52692;SDS011;68218;51.012;-1.648;2023-04-24T03:36:44;21.10;;;18.70;;
52692;SDS011;68218;51.012;-1.648;2023-04-24T03:39:12;23.63;;;19.55;;
52692;SDS011;68218;51.012;-1.648;2023-04-24T03:41:38;23.50;;;19.33;;
52692;SDS011;68218;51.012;-1.648;2023-04-24T03:44:03;21.48;;;18.05;;
52692;SDS011;68218;51.012;-1.648;2023-04-24T03:46:28;25.42;;;19.17;;
52692;SDS011;68218;51.012;-1.648;2023-04-24T03:48:54;23.15;;;19.67;;
52692;SDS011;68218;51.012;-1.648;2023-04-24T03:51:20;21.90;;;19.52;;
52692;SDS011;68218;51.012;-1.648;2023-04-24T03:53:45;23.05;;;18.17;;
52692;SDS011;68218;51.012;-1.648;2023-04-24T03:56:11;30.40;;;20.55;;
52692;SDS011;68218;51.012;-1.648;2023-04-24T03:58:36;24.05;;;18.33;;
52692;SDS011;68218;51.012;-1.648;2023-04-24T04:01:02;27.75;;;20.65;;
52692;SDS011;68218;51.012;-1.648;2023-04-24T04:03:27;24.45;;;20.08;;
52692;SDS011;68218;51.012;-1.648;2023-04-24T04:05:53;27.83;;;19.17;;
52692;SDS011;68218;51.012;-1.648;2023-04-24T04:08:19;23.85;;;18.70;;
52692;SDS011;68218;51.012;-1.648;2023-04-24T04:10:44;20.40;;;17.40;;
52692;SDS011;68218;51.012;-1.648;2023-04-24T04:13:10;22.23;;;17.55;;
52692;SDS011;68218;51.012;-1.648;2023-04-24T04:15:35;22.52;;;18.42;;
52692;SDS011;68218;51.012;-1.648;2023-04-24T04:18:01;26.30;;;20.27;;
52692;SDS011;68218;51.012;-1.648;2023-04-24T04:20:27;24.50;;;19.70;;
52692;SDS011;68218;51.012;-1.648;2023-04-24T04:22:52;26.40;;;18.60;;
52692;SDS011;68218;51.012;-1.648;2023-04-24T04:25:18;24.48;;;19.15;;
52692;SDS011;68218;51.012;-1.648;2023-04-24T04:27:44;28.45;;;18.85;;
52692;SDS011;68218;51.012;-1.648;2023-04-24T04:30:12;24.60;;;19.05;;
52692;SDS011;68218;51.012;-1.648;2023-04-24T04:32:38;25.90;;;19.42;;
52692;SDS011;68218;51.012;-1.648;2023-04-24T04:35:04;25.85;;;19.23;;
52692;SDS011;68218;51.012;-1.648;2023-04-24T04:37:30;23.23;;;19.13;;
52692;SDS011;68218;51.012;-1.648;2023-04-24T04:39:56;24.95;;;19.25;;
52692;SDS011;68218;51.012;-1.648;2023-04-24T04:42:23;25.83;;;19.27;;
52692;SDS011;68218;51.012;-1.648;2023-04-24T04:44:49;29.13;;;19.38;;
52692;SDS011;68218;51.012;-1.648;2023-04-24T04:47:15;24.55;;;18.67;;
52692;SDS011;68218;51.012;-1.648;2023-04-24T04:49:42;22.20;;;17.15;;
52692;SDS011;68218;51.012;-1.648;2023-04-24T04:52:08;19.85;;;17.48;;
52692;SDS011;68218;51.012;-1.648;2023-04-24T04:54:33;25.20;;;19.15;;
52692;SDS011;68218;51.012;-1.648;2023-04-24T04:56:59;22.30;;;19.17;;
52692;SDS011;68218;51.012;-1.648;2023-04-24T04:59:26;23.58;;;17.35;;
52692;SDS011;68218;51.012;-1.648;2023-04-24T05:04:17;18.65;;;16.73;;
52692;SDS011;68218;51.012;-1.648;2023-04-24T05:06:42;18.58;;;16.58;;
52692;SDS011;68218;51.012;-1.648;2023-04-24T05:09:08;17.02;;;15.07;;
52692;SDS011;68218;51.012;-1.648;2023-04-24T05:11:33;17.38;;;15.45;;
52692;SDS011;68218;51.012;-1.648;2023-04-24T05:13:58;16.83;;;15.15;;
52692;SDS011;68218;51.012;-1.648;2023-04-24T05:16:24;18.38;;;15.75;;
52692;SDS011;68218;51.012;-1.648;2023-04-24T05:18:49;17.48;;;15.63;;
52692;SDS011;68218;51.012;-1.648;2023-04-24T05:21:15;16.30;;;14.60;;
52692;SDS011;68218;51.012;-1.648;2023-04-24T05:23:41;17.58;;;15.30;;
52692;SDS011;68218;51.012;-1.648;2023-04-24T05:26:06;16.58;;;14.73;;
52692;SDS011;68218;51.012;-1.648;2023-04-24T05:28:32;16.33;;;14.45;;
52692;SDS011;68218;51.012;-1.648;2023-04-24T05:30:57;14.70;;;13.40;;
52692;SDS011;68218;51.012;-1.648;2023-04-24T05:33:24;13.60;;;12.40;;
52692;SDS011;68218;51.012;-1.648;2023-04-24T05:35:50;13.70;;;12.60;;
52692;SDS011;68218;51.012;-1.648;2023-04-24T05:38:15;12.10;;;11.18;;
52692;SDS011;68218;51.012;-1.648;2023-04-24T05:40:44;13.45;;;12.32;;
52692;SDS011;68218;51.012;-1.648;2023-04-24T05:43:10;11.48;;;10.68;;
52692;SDS011;68218;51.012;-1.648;2023-04-24T05:45:35;11.45;;;10.57;;
52692;SDS011;68218;51.012;-1.648;2023-04-24T05:48:01;11.60;;;10.70;;
52692;SDS011;68218;51.012;-1.648;2023-04-24T05:50:27;10.65;;;9.90;;
52692;SDS011;68218;51.012;-1.648;2023-04-24T05:52:53;13.48;;;12.32;;
52692;SDS011;68218;51.012;-1.648;2023-04-24T05:55:18;11.77;;;10.93;;
52692;SDS011;68218;51.012;-1.648;2023-04-24T05:57:44;12.13;;;11.15;;
52692;SDS011;68218;51.012;-1.648;2023-04-24T06:00:09;11.45;;;10.52;;
52692;SDS011;68218;51.012;-1.648;2023-04-24T06:02:37;10.80;;;10.00;;
52692;SDS011;68218;51.012;-1.648;2023-04-24T06:07:29;9.93;;;9.23;;
52692;SDS011;68218;51.012;-1.648;2023-04-24T06:09:55;10.65;;;9.85;;
52692;SDS011;68218;51.012;-1.648;2023-04-24T06:14:47;10.75;;;9.95;;
52692;SDS011;68218;51.012;-1.648;2023-04-24T06:17:12;11.45;;;10.55;;
52692;SDS011;68218;51.012;-1.648;2023-04-24T06:22:03;10.05;;;9.35;;
52692;SDS011;68218;51.012;-1.648;2023-04-24T06:26:54;11.80;;;10.90;;
52692;SDS011;68218;51.012;-1.648;2023-04-24T06:29:20;11.63;;;10.63;;
52692;SDS011;68218;51.012;-1.648;2023-04-24T06:31:45;10.77;;;9.88;;
52692;SDS011;68218;51.012;-1.648;2023-04-24T06:34:10;10.68;;;9.88;;
52692;SDS011;68218;51.012;-1.648;2023-04-24T06:36:36;10.80;;;10.00;;
52692;SDS011;68218;51.012;-1.648;2023-04-24T06:39:02;11.52;;;10.52;;
52692;SDS011;68218;51.012;-1.648;2023-04-24T06:43:53;11.55;;;10.65;;
52692;SDS011;68218;51.012;-1.648;2023-04-24T06:46:18;11.02;;;10.20;;
52692;SDS011;68218;51.012;-1.648;2023-04-24T06:48:44;11.80;;;10.88;;
52692;SDS011;68218;51.012;-1.648;2023-04-24T06:53:35;11.25;;;10.35;;
52692;SDS011;68218;51.012;-1.648;2023-04-24T06:58:26;10.80;;;10.00;;
52692;SDS011;68218;51.012;-1.648;2023-04-24T07:03:16;12.97;;;12.03;;
52692;SDS011;68218;51.012;-1.648;2023-04-24T07:05:42;11.30;;;10.43;;
52692;SDS011;68218;51.012;-1.648;2023-04-24T07:08:07;12.10;;;11.13;;
52692;SDS011;68218;51.012;-1.648;2023-04-24T07:10:36;12.35;;;11.45;;
52692;SDS011;68218;51.012;-1.648;2023-04-24T07:15:27;13.63;;;12.70;;
52692;SDS011;68218;51.012;-1.648;2023-04-24T07:17:52;12.30;;;11.40;;
52692;SDS011;68218;51.012;-1.648;2023-04-24T07:22:43;13.57;;;12.57;;
52692;SDS011;68218;51.012;-1.648;2023-04-24T07:27:34;12.32;;;11.43;;
52692;SDS011;68218;51.012;-1.648;2023-04-24T07:30:01;18.95;;;17.63;;
52692;SDS011;68218;51.012;-1.648;2023-04-24T07:32:28;16.45;;;15.27;;
52692;SDS011;68218;51.012;-1.648;2023-04-24T07:34:54;17.33;;;16.02;;
52692;SDS011;68218;51.012;-1.648;2023-04-24T07:37:20;18.95;;;17.55;;
52692;SDS011;68218;51.012;-1.648;2023-04-24T07:39:45;16.20;;;15.00;;
52692;SDS011;68218;51.012;-1.648;2023-04-24T07:42:11;20.33;;;18.83;;
52692;SDS011;68218;51.012;-1.648;2023-04-24T07:44:36;13.48;;;12.38;;
52692;SDS011;68218;51.012;-1.648;2023-04-24T07:47:02;14.05;;;12.95;;
52692;SDS011;68218;51.012;-1.648;2023-04-24T07:49:27;12.88;;;11.88;;
52692;SDS011;68218;51.012;-1.648;2023-04-24T07:51:53;12.75;;;11.75;;
52692;SDS011;68218;51.012;-1.648;2023-04-24T07:54:18;12.57;;;11.63;;
52692;SDS011;68218;51.012;-1.648;2023-04-24T07:56:44;13.20;;;12.20;;
52692;SDS011;68218;51.012;-1.648;2023-04-24T07:59:10;13.32;;;12.25;;
52692;SDS011;68218;51.012;-1.648;2023-04-24T08:01:36;12.50;;;11.43;;
52692;SDS011;68218;51.012;-1.648;2023-04-24T08:04:02;12.88;;;11.73;;
52692;SDS011;68218;51.012;-1.648;2023-04-24T08:06:28;12.48;;;11.48;;
52692;SDS011;68218;51.012;-1.648;2023-04-24T08:08:59;12.52;;;11.50;;
52692;SDS011;68218;51.012;-1.648;2023-04-24T08:11:25;13.02;;;12.02;;
52692;SDS011;68218;51.012;-1.648;2023-04-24T08:13:51;12.57;;;11.57;;
52692;SDS011;68218;51.012;-1.648;2023-04-24T08:16:16;13.27;;;12.20;;
52692;SDS011;68218;51.012;-1.648;2023-04-24T08:18:42;13.23;;;12.20;;
52692;SDS011;68218;51.012;-1.648;2023-04-24T08:21:07;13.07;;;12.07;;
52692;SDS011;68218;51.012;-1.648;2023-04-24T08:23:33;13.13;;;12.00;;
52692;SDS011;68218;51.012;-1.648;2023-04-24T08:25:58;12.27;;;11.32;;
52692;SDS011;68218;51.012;-1.648;2023-04-24T08:28:24;12.68;;;11.68;;
52692;SDS011;68218;51.012;-1.648;2023-04-24T08:30:50;13.40;;;12.38;;
52692;SDS011;68218;51.012;-1.648;2023-04-24T08:33:19;13.18;;;12.18;;
52692;SDS011;68218;51.012;-1.648;2023-04-24T08:35:45;12.57;;;11.65;;
52692;SDS011;68218;51.012;-1.648;2023-04-24T08:38:11;13.25;;;12.23;;
52692;SDS011;68218;51.012;-1.648;2023-04-24T08:40:36;13.93;;;12.82;;
52692;SDS011;68218;51.012;-1.648;2023-04-24T08:43:02;13.43;;;12.38;;
52692;SDS011;68218;51.012;-1.648;2023-04-24T08:45:28;13.07;;;12.07;;
52692;SDS011;68218;51.012;-1.648;2023-04-24T08:47:54;13.77;;;12.57;;
52692;SDS011;68218;51.012;-1.648;2023-04-24T08:50:20;13.93;;;12.68;;
52692;SDS011;68218;51.012;-1.648;2023-04-24T08:52:47;13.00;;;11.88;;
52692;SDS011;68218;51.012;-1.648;2023-04-24T08:55:15;12.95;;;11.88;;
52692;SDS011;68218;51.012;-1.648;2023-04-24T08:57:43;13.68;;;12.68;;
52692;SDS011;68218;51.012;-1.648;2023-04-24T09:00:10;13.85;;;12.63;;
52692;SDS011;68218;51.012;-1.648;2023-04-24T09:02:38;13.38;;;12.27;;
52692;SDS011;68218;51.012;-1.648;2023-04-24T09:05:06;14.60;;;13.48;;
52692;SDS011;68218;51.012;-1.648;2023-04-24T09:07:34;13.85;;;12.82;;
52692;SDS011;68218;51.012;-1.648;2023-04-24T09:10:01;13.75;;;12.73;;
52692;SDS011;68218;51.012;-1.648;2023-04-24T09:12:27;13.73;;;12.65;;
52692;SDS011;68218;51.012;-1.648;2023-04-24T09:14:53;13.70;;;12.60;;
52692;SDS011;68218;51.012;-1.648;2023-04-24T09:17:20;13.30;;;12.20;;
52692;SDS011;68218;51.012;-1.648;2023-04-24T09:19:47;14.43;;;13.23;;
52692;SDS011;68218;51.012;-1.648;2023-04-24T09:22:13;15.05;;;13.85;;
52692;SDS011;68218;51.012;-1.648;2023-04-24T09:24:40;14.27;;;13.07;;
52692;SDS011;68218;51.012;-1.648;2023-04-24T09:27:05;14.88;;;13.77;;
52692;SDS011;68218;51.012;-1.648;2023-04-24T09:29:32;13.30;;;12.20;;
52692;SDS011;68218;51.012;-1.648;2023-04-24T09:31:58;13.48;;;12.38;;
52692;SDS011;68218;51.012;-1.648;2023-04-24T09:34:24;14.27;;;13.18;;
52692;SDS011;68218;51.012;-1.648;2023-04-24T09:36:51;13.60;;;12.52;;
52692;SDS011;68218;51.012;-1.648;2023-04-24T09:39:17;14.38;;;13.18;;
52692;SDS011;68218;51.012;-1.648;2023-04-24T09:41:53;14.13;;;13.02;;
52692;SDS011;68218;51.012;-1.648;2023-04-24T09:44:26;14.05;;;12.85;;
52692;SDS011;68218;51.012;-1.648;2023-04-24T09:46:54;14.35;;;13.25;;
52692;SDS011;68218;51.012;-1.648;2023-04-24T09:49:30;14.32;;;13.20;;
52692;SDS011;68218;51.012;-1.648;2023-04-24T09:54:29;13.93;;;12.90;;
52692;SDS011;68218;51.012;-1.648;2023-04-24T09:56:55;14.13;;;13.02;;
52692;SDS011;68218;51.012;-1.648;2023-04-24T09:59:21;14.32;;;13.23;;
52692;SDS011;68218;51.012;-1.648;2023-04-24T10:01:47;14.13;;;12.98;;
52692;SDS011;68218;51.012;-1.648;2023-04-24T10:04:35;13.60;;;12.60;;
52692;SDS011;68218;51.012;-1.648;2023-04-24T10:06:59;13.85;;;12.75;;
52692;SDS011;68218;51.012;-1.648;2023-04-24T10:09:31;13.95;;;12.93;;
52692;SDS011;68218;51.012;-1.648;2023-04-24T10:11:57;14.00;;;12.90;;
52692;SDS011;68218;51.012;-1.648;2023-04-24T10:14:25;13.40;;;12.45;;
52692;SDS011;68218;51.012;-1.648;2023-04-24T10:16:54;13.20;;;12.20;;
52692;SDS011;68218;51.012;-1.648;2023-04-24T10:19:21;16.25;;;15.07;;
52692;SDS011;68218;51.012;-1.648;2023-04-24T10:21:50;21.65;;;20.05;;
52692;SDS011;68218;51.012;-1.648;2023-04-24T10:24:17;23.73;;;22.05;;
52692;SDS011;68218;51.012;-1.648;2023-04-24T10:26:45;23.25;;;21.55;;
52692;SDS011;68218;51.012;-1.648;2023-04-24T10:29:13;16.10;;;14.80;;
52692;SDS011;68218;51.012;-1.648;2023-04-24T10:31:40;20.05;;;18.60;;
52692;SDS011;68218;51.012;-1.648;2023-04-24T10:34:07;15.02;;;13.80;;
52692;SDS011;68218;51.012;-1.648;2023-04-24T10:36:34;14.30;;;13.20;;
52692;SDS011;68218;51.012;-1.648;2023-04-24T10:39:02;13.68;;;12.68;;
52692;SDS011;68218;51.012;-1.648;2023-04-24T10:41:31;13.40;;;12.48;;
52692;SDS011;68218;51.012;-1.648;2023-04-24T10:46:35;14.07;;;12.98;;
52692;SDS011;68218;51.012;-1.648;2023-04-24T10:49:05;12.63;;;11.73;;
52692;SDS011;68218;51.012;-1.648;2023-04-24T10:59:47;12.90;;;12.00;;
52692;SDS011;68218;51.012;-1.648;2023-04-24T11:02:38;12.98;;;12.02;;
52692;SDS011;68218;51.012;-1.648;2023-04-24T11:05:05;12.65;;;11.65;;
52692;SDS011;68218;51.012;-1.648;2023-04-24T11:11:18;13.63;;;12.70;;
52692;SDS011;68218;51.012;-1.648;2023-04-24T11:14:00;13.60;;;12.60;;
52692;SDS011;68218;51.012;-1.648;2023-04-24T11:16:27;13.35;;;12.35;;
52692;SDS011;68218;51.012;-1.648;2023-04-24T11:19:00;13.48;;;12.43;;
52692;SDS011;68218;51.012;-1.648;2023-04-24T11:21:30;14.30;;;13.27;;
52692;SDS011;68218;51.012;-1.648;2023-04-24T11:23:57;21.55;;;19.95;;
52692;SDS011;68218;51.012;-1.648;2023-04-24T11:26:23;22.23;;;20.50;;
52692;SDS011;68218;51.012;-1.648;2023-04-24T11:28:55;22.35;;;20.65;;
52692;SDS011;68218;51.012;-1.648;2023-04-24T11:31:43;23.00;;;21.20;;
52692;SDS011;68218;51.012;-1.648;2023-04-24T11:34:14;12.45;;;11.55;;
52692;SDS011;68218;51.012;-1.648;2023-04-24T11:36:45;14.30;;;13.10;;
52692;SDS011;68218;51.012;-1.648;2023-04-24T11:39:11;13.65;;;12.65;;
52692;SDS011;68218;51.012;-1.648;2023-04-24T11:41:37;12.90;;;12.00;;
52692;SDS011;68218;51.012;-1.648;2023-04-24T11:44:03;13.30;;;12.30;;
52692;SDS011;68218;51.012;-1.648;2023-04-24T11:46:31;12.63;;;11.70;;
52692;SDS011;68218;51.012;-1.648;2023-04-24T11:48:57;13.57;;;12.57;;
52692;SDS011;68218;51.012;-1.648;2023-04-24T11:51:24;12.98;;;11.98;;
52692;SDS011;68218;51.012;-1.648;2023-04-24T11:53:51;12.98;;;11.98;;
52692;SDS011;68218;51.012;-1.648;2023-04-24T11:56:19;13.18;;;11.95;;
52692;SDS011;68218;51.012;-1.648;2023-04-24T11:58:46;12.70;;;11.80;;
52692;SDS011;68218;51.012;-1.648;2023-04-24T12:01:12;13.38;;;12.48;;
52692;SDS011;68218;51.012;-1.648;2023-04-24T12:03:37;12.65;;;11.75;;
52692;SDS011;68218;51.012;-1.648;2023-04-24T12:08:35;12.98;;;11.98;;
52692;SDS011;68218;51.012;-1.648;2023-04-24T12:11:01;13.00;;;12.00;;
52692;SDS011;68218;51.012;-1.648;2023-04-24T12:13:27;12.00;;;11.10;;
52692;SDS011;68218;51.012;-1.648;2023-04-24T12:18:18;13.07;;;12.07;;
52692;SDS011;68218;51.012;-1.648;2023-04-24T12:23:08;13.13;;;12.17;;
52692;SDS011;68218;51.012;-1.648;2023-04-24T12:30:28;12.10;;;11.25;;
52692;SDS011;68218;51.012;-1.648;2023-04-24T12:32:56;13.23;;;12.32;;
52692;SDS011;68218;51.012;-1.648;2023-04-24T12:35:24;11.70;;;10.80;;
52692;SDS011;68218;51.012;-1.648;2023-04-24T12:37:51;12.25;;;11.27;;
52692;SDS011;68218;51.012;-1.648;2023-04-24T12:42:43;11.88;;;10.98;;
52692;SDS011;68218;51.012;-1.648;2023-04-24T12:45:11;11.90;;;11.00;;
52692;SDS011;68218;51.012;-1.648;2023-04-24T12:47:40;11.55;;;10.65;;
52692;SDS011;68218;51.012;-1.648;2023-04-24T12:50:07;12.00;;;11.05;;
52692;SDS011;68218;51.012;-1.648;2023-04-24T12:52:34;12.02;;;11.13;;
52692;SDS011;68218;51.012;-1.648;2023-04-24T12:57:26;11.65;;;10.80;;
52692;SDS011;68218;51.012;-1.648;2023-04-24T12:59:56;11.75;;;10.82;;
52692;SDS011;68218;51.012;-1.648;2023-04-24T13:02:23;11.38;;;10.55;;
52692;SDS011;68218;51.012;-1.648;2023-04-24T13:04:49;11.20;;;10.30;;
52692;SDS011;68218;51.012;-1.648;2023-04-24T13:09:41;10.57;;;9.77;;
52692;SDS011;68218;51.012;-1.648;2023-04-24T13:12:08;10.48;;;9.68;;
52692;SDS011;68218;51.012;-1.648;2023-04-24T13:14:34;10.32;;;9.52;;
52692;SDS011;68218;51.012;-1.648;2023-04-24T13:19:26;10.63;;;9.82;;
52692;SDS011;68218;51.012;-1.648;2023-04-24T13:21:52;11.10;;;10.27;;
52692;SDS011;68218;51.012;-1.648;2023-04-24T13:24:20;10.68;;;9.88;;
52692;SDS011;68218;51.012;-1.648;2023-04-24T13:29:10;9.70;;;9.00;;
52692;SDS011;68218;51.012;-1.648;2023-04-24T13:34:04;9.88;;;9.15;;
52692;SDS011;68218;51.012;-1.648;2023-04-24T13:36:29;10.32;;;9.48;;
52692;SDS011;68218;51.012;-1.648;2023-04-24T13:41:20;10.00;;;9.20;;
52692;SDS011;68218;51.012;-1.648;2023-04-24T13:46:11;9.70;;;8.98;;
52692;SDS011;68218;51.012;-1.648;2023-04-24T13:51:02;11.07;;;10.27;;
52692;SDS011;68218;51.012;-1.648;2023-04-24T13:55:53;10.38;;;9.57;;
52692;SDS011;68218;51.012;-1.648;2023-04-24T14:00:43;10.60;;;9.80;;
52692;SDS011;68218;51.012;-1.648;2023-04-24T14:05:34;10.55;;;9.75;;
52692;SDS011;68218;51.012;-1.648;2023-04-24T14:10:25;10.23;;;9.43;;
52692;SDS011;68218;51.012;-1.648;2023-04-24T14:12:52;11.80;;;10.80;;
52692;SDS011;68218;51.012;-1.648;2023-04-24T14:17:43;10.45;;;9.65;;
52692;SDS011;68218;51.012;-1.648;2023-04-24T14:22:34;11.05;;;10.23;;
52692;SDS011;68218;51.012;-1.648;2023-04-24T14:27:25;11.32;;;10.43;;
52692;SDS011;68218;51.012;-1.648;2023-04-24T14:29:51;10.50;;;9.60;;
52692;SDS011;68218;51.012;-1.648;2023-04-24T14:32:17;10.25;;;9.45;;
52692;SDS011;68218;51.012;-1.648;2023-04-24T14:37:08;11.83;;;10.93;;
52692;SDS011;68218;51.012;-1.648;2023-04-24T14:39:34;12.00;;;11.10;;
52692;SDS011;68218;51.012;-1.648;2023-04-24T14:44:25;11.27;;;10.45;;
52692;SDS011;68218;51.012;-1.648;2023-04-24T14:46:51;12.43;;;11.45;;
52692;SDS011;68218;51.012;-1.648;2023-04-24T14:51:42;11.60;;;10.70;;
52692;SDS011;68218;51.012;-1.648;2023-04-24T14:54:08;11.52;;;10.73;;
52692;SDS011;68218;51.012;-1.648;2023-04-24T14:56:33;11.65;;;10.75;;
52692;SDS011;68218;51.012;-1.648;2023-04-24T14:58:59;11.40;;;10.60;;
52692;SDS011;68218;51.012;-1.648;2023-04-24T15:01:24;11.40;;;10.60;;
52692;SDS011;68218;51.012;-1.648;2023-04-24T15:06:15;11.10;;;10.25;;
52692;SDS011;68218;51.012;-1.648;2023-04-24T15:08:41;10.70;;;9.90;;
52692;SDS011;68218;51.012;-1.648;2023-04-24T15:11:07;10.38;;;9.65;;
52692;SDS011;68218;51.012;-1.648;2023-04-24T15:13:33;10.57;;;9.77;;
52692;SDS011;68218;51.012;-1.648;2023-04-24T15:15:58;10.05;;;9.32;;
52692;SDS011;68218;51.012;-1.648;2023-04-24T15:18:24;10.02;;;9.30;;
52692;SDS011;68218;51.012;-1.648;2023-04-24T15:20:49;10.75;;;9.95;;
52692;SDS011;68218;51.012;-1.648;2023-04-24T15:25:40;11.20;;;10.40;;
52692;SDS011;68218;51.012;-1.648;2023-04-24T15:28:05;11.43;;;10.63;;
52692;SDS011;68218;51.012;-1.648;2023-04-24T15:30:31;10.63;;;9.82;;
52692;SDS011;68218;51.012;-1.648;2023-04-24T15:32:56;10.52;;;9.73;;
52692;SDS011;68218;51.012;-1.648;2023-04-24T15:35:22;10.93;;;10.13;;
52692;SDS011;68218;51.012;-1.648;2023-04-24T15:37:48;10.80;;;10.00;;
52692;SDS011;68218;51.012;-1.648;2023-04-24T15:40:13;10.88;;;10.07;;
52692;SDS011;68218;51.012;-1.648;2023-04-24T15:42:41;11.32;;;10.50;;
52692;SDS011;68218;51.012;-1.648;2023-04-24T15:45:07;11.13;;;10.32;;
52692;SDS011;68218;51.012;-1.648;2023-04-24T15:47:34;10.68;;;9.85;;
52692;SDS011;68218;51.012;-1.648;2023-04-24T15:50:00;10.80;;;9.93;;
52692;SDS011;68218;51.012;-1.648;2023-04-24T15:52:26;10.77;;;9.98;;
52692;SDS011;68218;51.012;-1.648;2023-04-24T15:54:52;10.38;;;9.65;;
52692;SDS011;68218;51.012;-1.648;2023-04-24T15:57:17;11.35;;;10.50;;
52692;SDS011;68218;51.012;-1.648;2023-04-24T15:59:43;11.70;;;10.88;;
52692;SDS011;68218;51.012;-1.648;2023-04-24T16:02:09;11.18;;;10.38;;
52692;SDS011;68218;51.012;-1.648;2023-04-24T16:04:38;11.10;;;10.30;;
52692;SDS011;68218;51.012;-1.648;2023-04-24T16:07:03;10.27;;;9.48;;
52692;SDS011;68218;51.012;-1.648;2023-04-24T16:09:29;11.70;;;10.90;;
52692;SDS011;68218;51.012;-1.648;2023-04-24T16:11:55;10.60;;;9.90;;
52692;SDS011;68218;51.012;-1.648;2023-04-24T16:14:20;11.38;;;10.38;;
52692;SDS011;68218;51.012;-1.648;2023-04-24T16:16:46;11.23;;;10.43;;
52692;SDS011;68218;51.012;-1.648;2023-04-24T16:19:11;10.77;;;9.98;;
52692;SDS011;68218;51.012;-1.648;2023-04-24T16:21:36;9.77;;;9.07;;
52692;SDS011;68218;51.012;-1.648;2023-04-24T16:24:02;10.57;;;9.65;;
52692;SDS011;68218;51.012;-1.648;2023-04-24T16:26:27;10.27;;;9.52;;